Time;durP1;ratioP1;P1;durP2;ratioP2;P2;SDS_P1;SDS_P2;PMS_P1;PMS_P2;Temp;Humidity;BMP_temperature;BMP_pressure;BME280_temperature;BME280_humidity;BME280_pressure;Samples;Min_cycle;Max_cycle;Signal;HPM_P1;HPM_P2
2023/10/10 00:01:03;;;;;;;;;;;;;;;11.67;98.37;101393.59;4221352;28;20019;-72
2023/10/10 00:03:06;;;;;;;;;;;;;;;11.70;98.54;101392.41;4221866;28;20392;-72
2023/10/10 00:05:12;;;;;;;;;;;;;;;11.70;98.31;101398.66;4221657;28;20030;-72
2023/10/10 00:07:14;;;;;;;;;;;;;;;11.69;98.67;101388.00;4222349;28;20014;-73
2023/10/10 00:09:16;;;;;;;;;;;;;;;11.68;98.51;101389.03;4222622;28;20027;-73
2023/10/10 00:11:20;;;;;;;;;;;;;;;11.67;99.08;101390.03;4221528;28;20473;-72
2023/10/10 00:13:23;;;;;;;;;;;;;;;11.68;98.84;101389.88;4222269;28;20031;-72
2023/10/10 00:15:32;;;;;;;;;;;;;;;11.70;98.59;101392.41;4221993;28;20491;-72
2023/10/10 00:17:36;;;;;;;;;;;;;;;11.67;98.48;101387.34;4222078;28;20034;-73
2023/10/10 00:19:43;;;;;;;;;;;;;;;11.67;99.04;101390.88;4220939;28;20015;-72
2023/10/10 00:21:48;;;;;;;;;;;;;;;11.68;98.99;101394.44;4220298;28;20031;-72
2023/10/10 00:23:51;;;;;;;;;;;;;;;11.69;98.89;101385.28;4221488;28;20027;-73
2023/10/10 00:25:52;;;;;;;;;;;;;;;11.68;98.56;101389.88;4221978;28;20006;-72
2023/10/10 00:27:58;;;;;;;;;;;;;;;11.67;98.77;101388.16;4222644;28;20385;-73
2023/10/10 00:30:02;;;;;;;;;;;;;;;11.69;98.33;101379.88;4221549;28;19973;-72
2023/10/10 00:32:12;;;;;;;;;;;;;;;11.69;98.47;101380.75;4219209;28;20037;-72
2023/10/10 00:34:15;;;;;;;;;;;;;;;11.67;98.51;101380.06;4220741;28;20015;-72
2023/10/10 00:36:22;;;;;;;;;;;;;;;11.65;98.76;101387.50;4220087;28;20022;-72
2023/10/10 00:38:29;;;;;;;;;;;;;;;11.66;98.85;101382.94;4237245;27;20046;-72
2023/10/10 00:40:32;;;;;;;;;;;;;;;11.64;98.69;101380.38;4221841;28;20096;-73
2023/10/10 00:42:40;;;;;;;;;;;;;;;11.64;98.79;101377.69;4215059;28;20023;-71
2023/10/10 00:44:44;;;;;;;;;;;;;;;11.61;98.63;101377.19;4219981;28;20015;-72
2023/10/10 00:46:47;;;;;;;;;;;;;;;11.61;98.98;101372.59;4204023;28;20015;-72
2023/10/10 00:48:59;;;;;;;;;;;;;;;11.63;99.04;101378.72;4203707;28;20600;-71
2023/10/10 00:51:06;;;;;;;;;;;;;;;11.60;98.81;101372.78;4221145;28;19924;-72
2023/10/10 00:53:11;;;;;;;;;;;;;;;11.62;99.29;101368.06;4221383;28;20027;-72
2023/10/10 00:55:13;;;;;;;;;;;;;;;11.62;99.13;101370.78;4219697;28;20357;-73
2023/10/10 00:57:16;;;;;;;;;;;;;;;11.65;98.84;101367.72;4221823;28;20035;-72
2023/10/10 00:59:17;;;;;;;;;;;;;;;11.64;98.89;101374.16;4219873;28;20470;-72
2023/10/10 01:01:20;;;;;;;;;;;;;;;11.64;98.79;101374.16;4217303;28;20011;-72
2023/10/10 01:03:22;;;;;;;;;;;;;;;11.66;99.05;101364.00;4203896;28;20465;-72
2023/10/10 01:05:32;;;;;;;;;;;;;;;11.66;98.76;101366.69;4203779;28;20010;-72
2023/10/10 01:07:34;;;;;;;;;;;;;;;11.63;99.24;101373.31;4221026;28;20056;-72
2023/10/10 01:09:41;;;;;;;;;;;;;;;11.62;99.57;101368.06;4219578;28;20036;-72
2023/10/10 01:11:45;;;;;;;;;;;;;;;11.65;99.20;101373.97;4219830;28;19934;-72
2023/10/10 01:13:47;;;;;;;;;;;;;;;11.64;99.38;101380.38;4217337;27;20408;-72
2023/10/10 01:15:49;;;;;;;;;;;;;;;11.62;99.16;101382.44;4218121;28;19928;-72
2023/10/10 01:17:54;;;;;;;;;;;;;;;11.61;99.26;101382.59;4218204;28;20010;-72
2023/10/10 01:19:58;;;;;;;;;;;;;;;11.63;99.46;101376.00;4221224;28;20460;-72
2023/10/10 01:22:22;;;;;;;;;;;;;;;11.60;99.64;101379.06;4220276;28;20031;-72
2023/10/10 01:24:24;;;;;;;;;;;;;;;11.63;99.51;101375.16;4218689;28;20011;-72
2023/10/10 01:26:29;;;;;;;;;;;;;;;11.60;99.75;101362.81;4220971;28;20055;-74
2023/10/10 01:28:34;;;;;;;;;;;;;;;11.58;99.95;101364.81;4218805;28;20026;-72
2023/10/10 01:30:56;;;;;;;;;;;;;;;11.60;100.00;101376.34;4220603;28;20022;-73
2023/10/10 01:33:01;;;;;;;;;;;;;;;11.60;100.00;101367.38;4220965;28;20019;-72
2023/10/10 01:35:15;;;;;;;;;;;;;;;11.61;100.00;101358.25;4202280;28;20445;-73
2023/10/10 01:37:22;;;;;;;;;;;;;;;11.62;100.00;101355.38;4221499;28;20812;-73
2023/10/10 01:39:27;;;;;;;;;;;;;;;11.60;100.00;101357.41;4220755;28;20019;-72
2023/10/10 01:41:38;;;;;;;;;;;;;;;11.61;100.00;101361.78;4218678;28;20030;-73
2023/10/10 01:43:45;;;;;;;;;;;;;;;11.62;100.00;101357.25;4203197;28;20023;-72
2023/10/10 01:46:08;;;;;;;;;;;;;;;11.63;100.00;101354.38;4221512;28;20015;-72
2023/10/10 01:48:11;;;;;;;;;;;;;;;11.63;100.00;101351.66;4218052;28;20018;-74
2023/10/10 01:50:14;;;;;;;;;;;;;;;11.64;99.71;101347.09;4202696;28;20022;-72
2023/10/10 01:52:20;;;;;;;;;;;;;;;11.63;99.72;101342.69;4202638;28;20016;-72
2023/10/10 01:54:29;;;;;;;;;;;;;;;11.63;99.99;101337.25;4221138;28;19923;-72
2023/10/10 01:56:31;;;;;;;;;;;;;;;11.63;100.00;101342.69;4220460;28;20397;-72
2023/10/10 01:58:36;;;;;;;;;;;;;;;11.62;100.00;101351.84;4218649;28;20030;-72
2023/10/10 02:00:41;;;;;;;;;;;;;;;11.63;100.00;101346.25;4217883;28;20118;-72
2023/10/10 02:02:43;;;;;;;;;;;;;;;11.63;100.00;101348.97;4226040;28;20014;-72
2023/10/10 02:04:45;;;;;;;;;;;;;;;11.63;100.00;101348.09;4218379;28;20046;-71
2023/10/10 02:06:47;;;;;;;;;;;;;;;11.65;100.00;101346.09;4220737;28;20027;-72
2023/10/10 02:08:51;;;;;;;;;;;;;;;11.63;100.00;101348.97;4235169;27;20391;-72
2023/10/10 02:10:55;;;;;;;;;;;;;;;11.63;100.00;101346.25;4220366;28;20465;-72
2023/10/10 02:12:59;;;;;;;;;;;;;;;11.63;100.00;101346.25;4218099;28;20399;-72
2023/10/10 02:15:01;;;;;;;;;;;;;;;11.64;100.00;101339.81;4198024;28;19966;-72
2023/10/10 02:17:20;;;;;;;;;;;;;;;11.63;100.00;101335.44;4201186;28;20042;-72
2023/10/10 02:19:32;;;;;;;;;;;;;;;11.61;100.00;101337.44;4220622;28;20026;-72
2023/10/10 02:21:43;;;;;;;;;;;;;;;11.63;100.00;101334.56;4220041;28;20014;-73
2023/10/10 02:23:46;;;;;;;;;;;;;;;11.64;100.00;101334.38;4220334;28;20753;-72
2023/10/10 02:25:48;;;;;;;;;;;;;;;11.67;100.00;101333.22;4220565;28;20461;-72
2023/10/10 02:27:55;;;;;;;;;;;;;;;11.67;100.00;101330.50;4218804;28;20019;-73
2023/10/10 02:30:03;;;;;;;;;;;;;;;11.64;100.00;101328.97;4220871;28;20024;-72
2023/10/10 02:32:11;;;;;;;;;;;;;;;11.67;100.00;101335.94;4220149;28;20023;-72
2023/10/10 02:34:13;;;;;;;;;;;;;;;11.67;100.00;101339.47;4235076;27;20384;-72
2023/10/10 02:36:15;;;;;;;;;;;;;;;11.69;100.00;101339.28;4234657;27;19927;-73
2023/10/10 02:38:17;;;;;;;;;;;;;;;11.69;100.00;101339.28;4219950;28;20027;-72
2023/10/10 02:40:19;;;;;;;;;;;;;;;11.67;100.00;101344.88;4219053;28;20027;-72
2023/10/10 02:42:23;;;;;;;;;;;;;;;11.69;100.00;101347.41;4218488;28;20407;-72
2023/10/10 02:44:38;;;;;;;;;;;;;;;11.67;100.00;101355.69;4220549;28;20102;-73
2023/10/10 02:46:42;;;;;;;;;;;;;;;11.68;100.00;101351.16;4220276;28;20472;-72
2023/10/10 02:48:43;;;;;;;;;;;;;;;11.65;100.00;101349.63;4220018;28;20047;-72
2023/10/10 02:50:45;;;;;;;;;;;;;;;11.65;100.00;101343.38;4220153;28;20460;-72
2023/10/10 02:52:47;;;;;;;;;;;;;;;11.65;100.00;101348.78;4234124;27;20353;-72
2023/10/10 02:54:54;;;;;;;;;;;;;;;11.64;100.00;101342.50;4234516;27;20830;-73
2023/10/10 02:56:57;;;;;;;;;;;;;;;11.63;100.00;101348.97;4234795;27;19931;-72
2023/10/10 02:59:05;;;;;;;;;;;;;;;11.63;100.00;101345.38;4220278;28;19977;-72
2023/10/10 03:01:19;;;;;;;;;;;;;;;11.64;100.00;101347.09;4218696;28;20014;-73
2023/10/10 03:03:21;;;;;;;;;;;;;;;11.66;100.00;101334.22;4217399;28;20047;-72
2023/10/10 03:07:42;;;;;;;;;;;;;;;11.65;100.00;101337.97;4217436;28;20042;-73
2023/10/10 03:10:14;;;;;;;;;;;;;;;11.66;100.00;101328.81;4234264;27;20027;-71
2023/10/10 03:12:17;;;;;;;;;;;;;;;11.62;100.00;101320.19;4234601;28;20028;-72
2023/10/10 03:14:28;;;;;;;;;;;;;;;11.64;100.00;101320.88;4219400;28;20008;-72
2023/10/10 03:16:44;;;;;;;;;;;;;;;11.65;100.00;101311.75;4201915;28;20469;-72
2023/10/10 03:18:54;;;;;;;;;;;;;;;11.67;100.00;101317.81;4203300;28;20373;-73
2023/10/10 03:21:24;;;;;;;;;;;;;;;11.65;100.00;101310.91;4237712;27;20022;-72
2023/10/10 03:23:33;;;;;;;;;;;;;;;11.65;100.00;101308.19;4222895;28;20015;-73
2023/10/10 03:25:45;;;;;;;;;;;;;;;11.67;100.00;101317.81;4237478;27;20006;-71
2023/10/10 03:27:54;;;;;;;;;;;;;;;11.69;100.00;101321.22;4204650;28;20023;-72
2023/10/10 03:30:19;;;;;;;;;;;;;;;11.70;100.00;101320.19;4238020;27;20025;-72
2023/10/10 03:32:31;;;;;;;;;;;;;;;11.72;100.00;101322.72;4221588;28;20023;-72
2023/10/10 03:34:44;;;;;;;;;;;;;;;11.72;100.00;101325.44;4221564;28;20050;-72
2023/10/10 03:37:03;;;;;;;;;;;;;;;11.73;100.00;101329.84;4205062;28;20010;-72
2023/10/10 03:39:23;;;;;;;;;;;;;;;11.72;100.00;101329.00;4204998;28;19960;-72
2023/10/10 03:41:26;;;;;;;;;;;;;;;11.72;100.00;101326.28;4221789;28;20011;-72
2023/10/10 05:24:42;;;;;;;;;;;;;;;12.08;100.00;101346.72;4202951;28;19924;-73
2023/10/10 05:26:47;;;;;;;;;;;;;;;12.10;100.00;101354.69;4219536;28;20347;-73
2023/10/10 05:28:49;;;;;;;;;;;;;;;12.12;100.00;101355.38;4220155;28;20023;-73
2023/10/10 05:30:55;;;;;;;;;;;;;;;12.12;100.00;101355.38;4218335;28;20035;-72
2023/10/10 05:33:01;;;;;;;;;;;;;;;12.14;100.00;101358.75;4220549;28;20022;-72
2023/10/10 05:35:11;;;;;;;;;;;;;;;12.14;100.00;101354.16;4219144;28;20031;-72
2023/10/10 05:37:15;;;;;;;;;;;;;;;12.17;100.00;101359.25;4220778;28;20354;-72
2023/10/10 05:39:20;;;;;;;;;;;;;;;12.18;100.00;101362.81;4220625;28;20023;-74
2023/10/10 05:41:24;;;;;;;;;;;;;;;12.18;100.00;101358.22;4220359;28;20014;-74
2023/10/10 05:43:31;;;;;;;;;;;;;;;12.20;100.00;101363.47;4219688;28;20023;-72
2023/10/10 05:45:35;;;;;;;;;;;;;;;12.21;100.00;101363.31;4219692;28;19928;-72
2023/10/10 05:47:39;;;;;;;;;;;;;;;12.22;100.00;101353.31;4219048;28;20058;-74
2023/10/10 05:49:41;;;;;;;;;;;;;;;12.22;100.00;101356.84;4218256;28;20461;-75
2023/10/10 05:51:43;;;;;;;;;;;;;;;12.23;100.00;101363.97;4201314;28;20046;-74
2023/10/10 05:53:46;;;;;;;;;;;;;;;12.25;100.00;101359.22;4219214;28;20368;-74
2023/10/10 05:55:51;;;;;;;;;;;;;;;12.26;100.00;101362.78;4218107;28;20383;-73
2023/10/10 05:57:54;;;;;;;;;;;;;;;12.26;100.00;101355.50;4219205;28;20489;-74
2023/10/10 05:59:58;;;;;;;;;;;;;;;12.27;100.00;101353.63;4217214;28;20023;-73
2023/10/10 06:02:01;;;;;;;;;;;;;;;12.29;100.00;101362.44;4216480;28;20019;-71
2023/10/10 06:04:03;;;;;;;;;;;;;;;12.31;100.00;101362.28;4218984;28;20020;-72
2023/10/10 06:06:05;;;;;;;;;;;;;;;12.33;100.00;101373.75;4218819;28;20684;-72
2023/10/10 06:08:06;;;;;;;;;;;;;;;12.34;100.00;101368.19;4218912;28;20608;-72
2023/10/10 06:10:14;;;;;;;;;;;;;;;12.35;100.00;101369.88;4218400;28;20031;-73
2023/10/10 06:12:17;;;;;;;;;;;;;;;12.37;100.00;101375.13;4218030;28;19928;-72
2023/10/10 06:14:21;;;;;;;;;;;;;;;12.39;100.00;101375.78;4219275;28;20006;-72
2023/10/10 06:16:23;;;;;;;;;;;;;;;12.39;100.00;101371.19;4218649;28;20603;-73
2023/10/10 06:18:25;;;;;;;;;;;;;;;12.41;100.00;101369.19;4218844;28;20030;-75
2023/10/10 06:20:27;;;;;;;;;;;;;;;12.44;100.00;101379.69;4218719;28;20022;-75
2023/10/10 06:22:30;;;;;;;;;;;;;;;12.44;100.00;101382.38;4218299;28;20023;-74
2023/10/10 06:24:33;;;;;;;;;;;;;;;12.46;100.00;101384.91;4218699;28;20032;-72
2023/10/10 06:26:37;;;;;;;;;;;;;;;12.48;100.00;101387.44;4218603;28;19978;-75
2023/10/10 06:28:44;;;;;;;;;;;;;;;12.49;100.00;101391.84;4217967;28;20008;-72
2023/10/10 06:30:50;;;;;;;;;;;;;;;12.50;100.00;101390.81;4218235;28;20015;-71
2023/10/10 06:33:07;;;;;;;;;;;;;;;12.50;100.00;101388.13;4218917;28;20011;-74
2023/10/10 06:35:26;;;;;;;;;;;;;;;12.53;100.00;101385.91;4218163;28;20018;-73
2023/10/10 06:37:28;;;;;;;;;;;;;;;12.55;100.00;101396.56;4220154;28;20027;-73
2023/10/10 06:39:33;;;;;;;;;;;;;;;12.55;100.00;101399.28;4218294;28;20022;-73
2023/10/10 06:41:36;;;;;;;;;;;;;;;12.56;100.00;101393.69;4218186;28;20083;-73
2023/10/10 06:43:39;;;;;;;;;;;;;;;12.55;100.00;101389.25;4218473;28;20007;-72
2023/10/10 06:45:42;;;;;;;;;;;;;;;12.59;100.00;101397.91;4218927;28;20032;-73
2023/10/10 06:47:50;;;;;;;;;;;;;;;12.60;100.00;101392.31;4216777;28;20560;-73
2023/10/10 06:49:54;;;;;;;;;;;;;;;12.61;100.00;101396.69;4218865;28;20378;-73
2023/10/10 06:51:56;;;;;;;;;;;;;;;12.61;100.00;101404.84;4218985;28;20023;-73
2023/10/10 06:53:58;;;;;;;;;;;;;;;12.62;100.00;101397.56;4218561;28;20036;-73
2023/10/10 06:56:14;;;;;;;;;;;;;;;12.63;100.00;101410.06;4219621;28;20022;-73
2023/10/10 06:58:16;;;;;;;;;;;;;;;12.64;100.00;101411.78;4218496;28;20020;-76
2023/10/10 07:00:21;;;;;;;;;;;;;;;12.65;100.00;101413.47;4217493;28;20019;-74
2023/10/10 07:02:25;;;;;;;;;;;;;;;12.67;100.00;101406.00;4216778;28;20018;-74
2023/10/10 07:04:29;;;;;;;;;;;;;;;12.68;100.00;101404.13;4217599;28;20024;-74
2023/10/10 07:06:30;;;;;;;;;;;;;;;12.72;100.00;101408.19;4219134;28;20022;-74
2023/10/10 07:08:34;;;;;;;;;;;;;;;12.71;99.99;101409.22;4218542;28;20027;-74
2023/10/10 07:10:36;;;;;;;;;;;;;;;12.71;98.94;101407.38;4215990;28;20425;-75
2023/10/10 07:12:38;;;;;;;;;;;;;;;12.73;98.53;101404.47;4217850;28;20111;-78
2023/10/10 07:14:43;;;;;;;;;;;;;;;12.72;97.54;101410.91;4218528;28;20412;-77
2023/10/10 07:16:45;;;;;;;;;;;;;;;12.74;96.98;101412.44;4217589;28;20011;-75
2023/10/10 07:18:56;;;;;;;;;;;;;;;12.75;96.00;101415.97;4218213;28;20031;-73
2023/10/10 07:21:06;;;;;;;;;;;;;;;12.79;96.64;101422.75;4216323;28;20577;-72
2023/10/10 07:23:07;;;;;;;;;;;;;;;12.79;96.04;101417.34;4218326;28;20015;-73
2023/10/10 07:25:17;;;;;;;;;;;;;;;12.79;94.87;101426.28;4220218;28;19939;-75
2023/10/10 07:27:24;;;;;;;;;;;;;;;12.82;94.91;101424.25;4216863;28;20514;-73
2023/10/10 07:29:30;;;;;;;;;;;;;;;12.84;95.06;101430.38;4218853;28;20012;-73
2023/10/10 07:31:34;;;;;;;;;;;;;;;12.86;94.47;101429.16;4217711;28;20014;-73
2023/10/10 07:33:40;;;;;;;;;;;;;;;12.87;93.86;101422.72;4218915;28;20019;-73
2023/10/10 07:35:53;;;;;;;;;;;;;;;12.88;93.70;101428.97;4218707;28;20030;-74
2023/10/10 07:37:58;;;;;;;;;;;;;;;12.89;93.04;101427.97;4218838;28;20023;-72
2023/10/10 07:40:18;;;;;;;;;;;;;;;12.92;92.63;101433.88;4231463;28;20587;-73
2023/10/10 07:42:27;;;;;;;;;;;;;;;12.95;93.04;101435.41;4219403;28;20026;-74
2023/10/10 07:44:30;;;;;;;;;;;;;;;12.96;93.40;101434.34;4218678;28;20022;-73
2023/10/10 07:46:35;;;;;;;;;;;;;;;12.98;94.63;101426.91;4217118;28;20011;-73
2023/10/10 07:48:46;;;;;;;;;;;;;;;13.02;96.91;101436.38;4217889;28;20022;-75
2023/10/10 07:50:47;;;;;;;;;;;;;;;13.01;96.28;101434.69;4218379;28;20018;-73
2023/10/10 07:52:50;;;;;;;;;;;;;;;13.01;94.54;101431.97;4218960;28;20011;-76
2023/10/10 07:55:02;;;;;;;;;;;;;;;13.03;94.44;101429.09;4217153;28;20030;-74
2023/10/10 07:57:07;;;;;;;;;;;;;;;13.04;94.13;101436.19;4216515;28;20022;-73
2023/10/10 07:59:09;;;;;;;;;;;;;;;13.04;93.32;101430.75;4218431;28;20038;-74
2023/10/10 08:01:16;;;;;;;;;;;;;;;13.06;93.59;101432.28;4216989;28;20537;-74
2023/10/10 08:03:20;;;;;;;;;;;;;;;13.09;94.63;101437.34;4217208;28;20023;-73
2023/10/10 08:05:22;;;;;;;;;;;;;;;13.08;95.09;101430.25;4220803;28;20354;-75
2023/10/10 08:07:24;;;;;;;;;;;;;;;13.08;94.12;101429.41;4221298;28;20018;-74
2023/10/10 08:09:29;;;;;;;;;;;;;;;13.09;93.54;101437.34;4202091;28;20039;-73
2023/10/10 08:11:36;;;;;;;;;;;;;;;13.09;92.70;101434.66;4220675;27;20018;-72
2023/10/10 08:13:38;;;;;;;;;;;;;;;13.10;92.46;101428.22;4222011;28;20014;-72
2023/10/10 08:15:50;;;;;;;;;;;;;;;13.14;93.99;101434.94;4221733;28;20014;-72
2023/10/10 08:17:52;;;;;;;;;;;;;;;13.19;96.17;101436.31;4221311;28;20031;-72
2023/10/10 08:19:54;;;;;;;;;;;;;;;13.16;95.67;101441.06;4215568;28;20030;-72
2023/10/10 08:21:55;;;;;;;;;;;;;;;13.19;95.51;101441.72;4221780;28;20027;-73
2023/10/10 08:23:59;;;;;;;;;;;;;;;13.14;95.56;101431.41;4221427;28;20625;-73
2023/10/10 08:26:00;;;;;;;;;;;;;;;13.23;98.62;101437.63;4220811;28;20018;-73
2023/10/10 08:28:03;;;;;;;;;;;;;;;13.23;98.47;101443.03;4221629;28;20028;-74
2023/10/10 08:30:06;;;;;;;;;;;;;;;13.21;96.07;101431.53;4223678;28;20030;-71
2023/10/10 08:32:08;;;;;;;;;;;;;;;13.20;94.45;101438.84;4220622;28;19924;-71
2023/10/10 08:34:11;;;;;;;;;;;;;;;13.24;97.28;101445.56;4222073;28;20109;-71
2023/10/10 08:36:23;;;;;;;;;;;;;;;13.24;96.95;101442.88;4219855;28;20043;-72
2023/10/10 08:38:26;;;;;;;;;;;;;;;13.25;94.83;101438.31;4222800;28;20433;-70
2023/10/10 08:40:30;;;;;;;;;;;;;;;13.26;95.36;101432.69;4219395;28;20022;-71
2023/10/10 08:42:35;;;;;;;;;;;;;;;13.29;95.86;101434.19;4219866;28;20350;-71
2023/10/10 08:44:38;;;;;;;;;;;;;;;13.28;94.79;101438.78;4224162;28;20006;-70
2023/10/10 08:46:46;;;;;;;;;;;;;;;13.27;93.88;101442.50;4219584;28;20022;-70
2023/10/10 08:48:48;;;;;;;;;;;;;;;13.29;93.32;101436.91;4221207;28;20022;-70
2023/10/10 08:50:50;;;;;;;;;;;;;;;13.30;92.28;101442.16;4222298;27;20027;-71
2023/10/10 08:52:51;;;;;;;;;;;;;;;13.32;91.49;101440.13;4221785;28;19931;-71
2023/10/10 08:54:53;;;;;;;;;;;;;;;13.33;92.93;101433.69;4224448;28;20011;-70
2023/10/10 08:57:00;;;;;;;;;;;;;;;13.34;91.96;101438.09;4220365;28;20054;-71
2023/10/10 08:59:03;;;;;;;;;;;;;;;13.36;92.58;101437.09;4204544;28;20015;-71
2023/10/10 09:01:08;;;;;;;;;;;;;;;13.39;96.26;101432.16;4219032;28;20019;-70
2023/10/10 09:03:10;;;;;;;;;;;;;;;13.39;94.98;101445.72;4221218;28;20030;-71
2023/10/10 09:05:14;;;;;;;;;;;;;;;13.38;93.78;101443.19;4221255;28;20058;-71
2023/10/10 09:07:20;;;;;;;;;;;;;;;13.40;92.89;101441.13;4223632;28;20513;-71
2023/10/10 09:09:34;;;;;;;;;;;;;;;13.40;92.63;101442.00;4219814;28;20014;-71
2023/10/10 09:11:37;;;;;;;;;;;;;;;13.42;91.97;101433.66;4219935;28;20022;-72
2023/10/10 09:13:51;;;;;;;;;;;;;;;13.45;94.17;101433.31;4221276;28;20014;-71
2023/10/10 09:15:56;;;;;;;;;;;;;;;13.47;97.02;101442.94;4219315;28;20410;-71
2023/10/10 09:18:14;;;;;;;;;;;;;;;13.49;97.81;101434.63;4219707;28;20030;-71
2023/10/10 09:20:23;;;;;;;;;;;;;;;13.50;96.08;101447.19;4219974;28;20458;-70
2023/10/10 09:22:29;;;;;;;;;;;;;;;13.49;95.28;101442.75;4222230;28;20047;-71
2023/10/10 09:24:33;;;;;;;;;;;;;;;13.51;93.48;101446.13;4220006;28;20058;-71
2023/10/10 09:26:37;;;;;;;;;;;;;;;13.56;95.45;101441.03;4222097;28;20022;-70
2023/10/10 09:28:45;;;;;;;;;;;;;;;13.57;95.29;101440.00;4221080;28;20058;-71
2023/10/10 09:30:50;;;;;;;;;;;;;;;13.58;95.04;101436.25;4219553;28;20434;-71
2023/10/10 09:32:59;;;;;;;;;;;;;;;13.58;93.41;101441.69;4219717;28;20019;-70
2023/10/10 09:35:05;;;;;;;;;;;;;;;13.61;92.21;101440.50;4220285;28;20489;-70
2023/10/10 09:37:08;;;;;;;;;;;;;;;13.61;91.88;101435.91;4220625;28;20051;-70
2023/10/10 09:39:25;;;;;;;;;;;;;;;13.64;91.36;101434.72;4220120;28;20044;-70
2023/10/10 09:41:37;;;;;;;;;;;;;;;13.66;91.20;101435.38;4218869;28;20011;-70
2023/10/10 09:43:48;;;;;;;;;;;;;;;13.67;90.66;101434.34;4221080;28;20006;-71
2023/10/10 09:45:53;;;;;;;;;;;;;;;13.67;90.48;101437.91;4220199;28;20007;-70
2023/10/10 09:47:57;;;;;;;;;;;;;;;13.68;90.19;101441.44;4220112;28;20014;-73
2023/10/10 09:50:28;;;;;;;;;;;;;;;13.71;91.24;101446.53;4217392;28;20048;-71
2023/10/10 09:54:40;;;;;;;;;;;;;;;13.74;94.26;101451.59;4201192;28;20470;-73
2023/10/10 09:56:43;;;;;;;;;;;;;;;13.74;94.81;101451.59;4219035;28;20477;-73
2023/10/10 09:58:46;;;;;;;;;;;;;;;13.75;94.59;101447.03;4221053;28;20028;-72
2023/10/10 10:00:47;;;;;;;;;;;;;;;13.73;93.25;101451.78;4219439;28;20089;-72
2023/10/10 10:02:56;;;;;;;;;;;;;;;13.75;93.29;101453.28;4220165;28;20113;-71
2023/10/10 10:04:58;;;;;;;;;;;;;;;13.75;92.49;101450.56;4220445;28;20003;-71
2023/10/10 10:07:12;;;;;;;;;;;;;;;13.77;92.85;101445.81;4219312;28;20022;-72
2023/10/10 10:09:46;;;;;;;;;;;;;;;13.80;94.27;101453.59;4219597;28;20380;-72
2023/10/10 10:11:52;;;;;;;;;;;;;;;13.79;92.71;101448.34;4167475;28;19925;-72
2023/10/10 10:13:57;;;;;;;;;;;;;;;13.80;92.11;101453.59;4196400;28;20019;-71
2023/10/10 10:16:08;;;;;;;;;;;;;;;13.81;92.14;101462.59;4218884;28;20027;-71
2023/10/10 10:18:13;;;;;;;;;;;;;;;13.85;93.23;101461.19;4218429;28;19938;-72
2023/10/10 10:20:23;;;;;;;;;;;;;;;13.84;92.64;101467.63;4216125;28;20018;-72
2023/10/10 10:22:29;;;;;;;;;;;;;;;13.84;91.98;101468.50;4217392;28;20014;-74
2023/10/10 10:24:30;;;;;;;;;;;;;;;13.87;93.00;101461.84;4218289;28;20006;-74
2023/10/10 10:26:35;;;;;;;;;;;;;;;13.90;94.75;101469.63;4218199;28;20027;-73
2023/10/10 10:28:38;;;;;;;;;;;;;;;13.89;94.75;101473.38;4216888;28;19955;-73
2023/10/10 10:30:50;;;;;;;;;;;;;;;13.86;92.72;101463.72;4216812;28;20015;-72
2023/10/10 10:32:54;;;;;;;;;;;;;;;13.89;92.89;101465.25;4215573;28;20018;-72
2023/10/10 10:34:57;;;;;;;;;;;;;;;13.89;92.45;101465.25;4219467;28;20449;-74
2023/10/10 10:37:06;;;;;;;;;;;;;;;13.88;91.88;101467.09;4218133;28;20022;-75
2023/10/10 10:39:20;;;;;;;;;;;;;;;13.89;91.71;101462.53;4219277;28;20011;-72
2023/10/10 10:41:41;;;;;;;;;;;;;;;13.88;91.06;101469.81;4218189;28;20019;-73
2023/10/10 10:43:50;;;;;;;;;;;;;;;13.90;91.00;101469.63;4219698;28;20437;-72
2023/10/10 10:45:53;;;;;;;;;;;;;;;13.91;92.29;101465.91;4219369;28;20469;-71
2023/10/10 10:47:59;;;;;;;;;;;;;;;13.91;92.67;101457.75;4218722;28;20010;-73
2023/10/10 10:50:00;;;;;;;;;;;;;;;13.93;94.30;101461.13;4217480;28;20050;-72
2023/10/10 10:52:17;;;;;;;;;;;;;;;13.91;93.32;101460.47;4218555;28;20019;-73
2023/10/10 10:54:35;;;;;;;;;;;;;;;13.94;93.71;101464.69;4217805;28;20011;-72
2023/10/10 10:56:40;;;;;;;;;;;;;;;13.92;93.19;101458.59;4218187;28;20026;-72
2023/10/10 10:58:59;;;;;;;;;;;;;;;13.93;92.62;101460.28;4219476;28;20022;-72
2023/10/10 11:01:07;;;;;;;;;;;;;;;13.93;91.62;101460.28;4217836;28;20024;-72
2023/10/10 11:03:11;;;;;;;;;;;;;;;13.95;91.35;101459.09;4218410;28;20023;-72
2023/10/10 11:05:13;;;;;;;;;;;;;;;13.98;93.88;101457.84;4218230;28;20023;-74
2023/10/10 11:07:27;;;;;;;;;;;;;;;13.97;94.20;101448.03;4218360;28;20034;-73
2023/10/10 11:09:28;;;;;;;;;;;;;;;13.96;93.65;101452.59;4232049;27;20023;-73
2023/10/10 11:11:36;;;;;;;;;;;;;;;13.96;93.00;101449.06;4217247;28;20059;-71
2023/10/10 11:13:38;;;;;;;;;;;;;;;13.94;91.99;101438.38;4219111;28;20018;-72
2023/10/10 11:15:40;;;;;;;;;;;;;;;13.98;94.26;101442.44;4218629;28;20018;-72
2023/10/10 11:17:58;;;;;;;;;;;;;;;13.98;93.35;101447.88;4215926;28;20027;-75
2023/10/10 11:20:25;;;;;;;;;;;;;;;13.99;93.55;101441.38;4218292;28;20040;-72
2023/10/10 11:22:41;;;;;;;;;;;;;;;13.98;92.13;101445.16;4217406;28;19924;-71
2023/10/10 11:24:47;;;;;;;;;;;;;;;13.99;92.45;101451.41;4217469;28;20454;-72
2023/10/10 11:26:49;;;;;;;;;;;;;;;14.01;93.40;101447.50;4217226;28;20739;-73
2023/10/10 11:28:59;;;;;;;;;;;;;;;14.03;93.55;101447.31;4201825;28;20060;-72
2023/10/10 11:31:07;;;;;;;;;;;;;;;14.02;94.29;101448.34;4217013;28;20019;-72
2023/10/10 11:33:19;;;;;;;;;;;;;;;14.02;93.28;101449.16;4218390;28;20498;-71
2023/10/10 11:35:26;;;;;;;;;;;;;;;14.03;94.02;101442.72;4218484;28;20018;-72
2023/10/10 11:37:31;;;;;;;;;;;;;;;14.05;94.50;101446.09;4216563;28;20031;-73
2023/10/10 11:39:34;;;;;;;;;;;;;;;14.04;93.98;101436.28;4219646;28;20031;-70
2023/10/10 11:41:37;;;;;;;;;;;;;;;14.06;95.29;101438.81;4221328;28;20114;-71
2023/10/10 11:43:53;;;;;;;;;;;;;;;14.06;95.88;101442.34;4221558;28;20394;-70
2023/10/10 11:45:55;;;;;;;;;;;;;;;14.06;95.18;101444.22;4221830;28;20015;-72
2023/10/10 11:48:00;;;;;;;;;;;;;;;14.05;94.52;101440.66;4221458;28;20090;-72
2023/10/10 11:50:05;;;;;;;;;;;;;;;14.05;93.29;101440.66;4218945;28;20054;-72
2023/10/10 11:52:15;;;;;;;;;;;;;;;14.07;92.56;101435.03;4219734;28;20022;-72
2023/10/10 11:54:25;;;;;;;;;;;;;;;14.08;91.72;101431.31;4220698;28;20097;-72
2023/10/10 11:56:28;;;;;;;;;;;;;;;14.09;91.43;101433.00;4220296;28;20445;-71
2023/10/10 11:58:36;;;;;;;;;;;;;;;14.11;91.82;101430.09;4222676;28;20026;-74
2023/10/10 12:00:42;;;;;;;;;;;;;;;14.12;91.59;101420.91;4220922;28;20958;-76
2023/10/10 12:02:46;;;;;;;;;;;;;;;14.13;91.55;101419.88;4220728;28;20349;-72
2023/10/10 12:04:51;;;;;;;;;;;;;;;14.13;91.56;101417.19;4221253;28;20399;-72
2023/10/10 12:06:55;;;;;;;;;;;;;;;14.15;92.35;101425.97;4221807;28;20043;-71
2023/10/10 12:08:58;;;;;;;;;;;;;;;14.12;91.68;101418.19;4220183;28;20038;-72
2023/10/10 12:11:06;;;;;;;;;;;;;;;14.15;92.95;101421.41;4220821;28;20028;-73
2023/10/10 12:13:09;;;;;;;;;;;;;;;14.19;93.86;101420.00;4220527;28;20015;-71
2023/10/10 12:15:15;;;;;;;;;;;;;;;14.19;93.49;101416.44;4221458;28;20015;-73
2023/10/10 12:17:20;;;;;;;;;;;;;;;14.20;93.28;101421.69;4220324;28;20011;-72
2023/10/10 12:19:22;;;;;;;;;;;;;;;14.20;92.74;101421.69;4220446;28;20010;-71
2023/10/10 12:21:25;;;;;;;;;;;;;;;14.21;93.01;101423.34;4220188;28;20026;-72
2023/10/10 12:23:28;;;;;;;;;;;;;;;14.22;92.52;101418.78;4202178;28;20128;-73
2023/10/10 12:25:30;;;;;;;;;;;;;;;14.22;91.55;101416.06;4219265;28;20377;-72
2023/10/10 12:27:32;;;;;;;;;;;;;;;14.23;93.17;101412.31;4220220;28;20014;-71
2023/10/10 12:29:33;;;;;;;;;;;;;;;14.23;92.15;101415.03;4221320;28;20058;-72
2023/10/10 12:31:36;;;;;;;;;;;;;;;14.23;92.11;101412.31;4219339;28;20022;-72